sensor_id;sensor_type;location;lat;lon;timestamp;P1;durP1;ratioP1;P2;durP2;ratioP2
73100;SDS011;61288;53.446;-2.266;2023-05-07T00:00:55;17.77;;;7.75;;
73100;SDS011;61288;53.446;-2.266;2023-05-07T00:03:21;19.88;;;7.95;;
73100;SDS011;61288;53.446;-2.266;2023-05-07T00:05:47;19.42;;;8.32;;
73100;SDS011;61288;53.446;-2.266;2023-05-07T00:08:13;18.63;;;7.50;;
73100;SDS011;61288;53.446;-2.266;2023-05-07T00:10:38;18.50;;;7.22;;
73100;SDS011;61288;53.446;-2.266;2023-05-07T00:13:03;18.35;;;7.05;;
73100;SDS011;61288;53.446;-2.266;2023-05-07T00:15:29;16.98;;;7.10;;
73100;SDS011;61288;53.446;-2.266;2023-05-07T00:17:55;18.85;;;7.90;;
73100;SDS011;61288;53.446;-2.266;2023-05-07T00:20:20;18.58;;;7.10;;
73100;SDS011;61288;53.446;-2.266;2023-05-07T00:22:46;18.25;;;7.90;;
73100;SDS011;61288;53.446;-2.266;2023-05-07T00:25:11;19.55;;;7.43;;
73100;SDS011;61288;53.446;-2.266;2023-05-07T00:27:37;17.95;;;6.93;;
73100;SDS011;61288;53.446;-2.266;2023-05-07T00:30:02;18.50;;;7.90;;
73100;SDS011;61288;53.446;-2.266;2023-05-07T00:32:28;19.13;;;7.85;;
73100;SDS011;61288;53.446;-2.266;2023-05-07T00:34:56;23.33;;;8.85;;
73100;SDS011;61288;53.446;-2.266;2023-05-07T00:37:21;16.55;;;7.70;;
73100;SDS011;61288;53.446;-2.266;2023-05-07T00:39:47;24.40;;;9.90;;
73100;SDS011;61288;53.446;-2.266;2023-05-07T00:42:12;23.05;;;9.05;;
73100;SDS011;61288;53.446;-2.266;2023-05-07T00:44:38;21.45;;;9.05;;
73100;SDS011;61288;53.446;-2.266;2023-05-07T00:47:03;24.33;;;9.27;;
73100;SDS011;61288;53.446;-2.266;2023-05-07T00:49:40;22.10;;;9.50;;
73100;SDS011;61288;53.446;-2.266;2023-05-07T00:52:07;23.95;;;11.13;;
73100;SDS011;61288;53.446;-2.266;2023-05-07T00:54:36;23.92;;;10.23;;
73100;SDS011;61288;53.446;-2.266;2023-05-07T00:57:02;25.13;;;10.60;;
73100;SDS011;61288;53.446;-2.266;2023-05-07T00:59:29;27.08;;;11.40;;
73100;SDS011;61288;53.446;-2.266;2023-05-07T01:01:55;24.70;;;10.82;;
73100;SDS011;61288;53.446;-2.266;2023-05-07T01:04:21;24.20;;;10.73;;
73100;SDS011;61288;53.446;-2.266;2023-05-07T01:06:46;26.83;;;11.45;;
73100;SDS011;61288;53.446;-2.266;2023-05-07T01:09:12;27.50;;;10.30;;
73100;SDS011;61288;53.446;-2.266;2023-05-07T01:11:38;25.13;;;10.30;;
73100;SDS011;61288;53.446;-2.266;2023-05-07T01:14:05;24.15;;;10.45;;
73100;SDS011;61288;53.446;-2.266;2023-05-07T01:16:31;26.02;;;10.40;;
73100;SDS011;61288;53.446;-2.266;2023-05-07T01:18:56;23.77;;;9.93;;
73100;SDS011;61288;53.446;-2.266;2023-05-07T01:21:25;25.48;;;9.80;;
73100;SDS011;61288;53.446;-2.266;2023-05-07T01:23:51;23.17;;;10.15;;
73100;SDS011;61288;53.446;-2.266;2023-05-07T01:26:18;24.52;;;9.65;;
73100;SDS011;61288;53.446;-2.266;2023-05-07T01:28:45;25.25;;;10.65;;
73100;SDS011;61288;53.446;-2.266;2023-05-07T01:31:14;24.33;;;9.75;;
73100;SDS011;61288;53.446;-2.266;2023-05-07T01:33:41;25.35;;;11.32;;
73100;SDS011;61288;53.446;-2.266;2023-05-07T01:36:09;25.98;;;10.07;;
73100;SDS011;61288;53.446;-2.266;2023-05-07T01:38:36;22.33;;;10.25;;
73100;SDS011;61288;53.446;-2.266;2023-05-07T01:41:04;24.02;;;10.35;;
73100;SDS011;61288;53.446;-2.266;2023-05-07T01:43:30;24.20;;;9.98;;
73100;SDS011;61288;53.446;-2.266;2023-05-07T01:45:55;22.35;;;9.40;;
73100;SDS011;61288;53.446;-2.266;2023-05-07T01:48:24;26.17;;;10.65;;
73100;SDS011;61288;53.446;-2.266;2023-05-07T01:50:50;25.75;;;10.27;;
73100;SDS011;61288;53.446;-2.266;2023-05-07T01:53:16;22.98;;;9.15;;
73100;SDS011;61288;53.446;-2.266;2023-05-07T01:55:41;22.73;;;9.68;;
73100;SDS011;61288;53.446;-2.266;2023-05-07T01:58:07;26.00;;;10.10;;
73100;SDS011;61288;53.446;-2.266;2023-05-07T02:00:32;22.23;;;9.40;;
73100;SDS011;61288;53.446;-2.266;2023-05-07T02:02:58;21.10;;;8.82;;
73100;SDS011;61288;53.446;-2.266;2023-05-07T02:05:24;21.05;;;8.93;;
73100;SDS011;61288;53.446;-2.266;2023-05-07T02:07:49;20.92;;;9.50;;
73100;SDS011;61288;53.446;-2.266;2023-05-07T02:10:15;27.27;;;11.38;;
73100;SDS011;61288;53.446;-2.266;2023-05-07T02:12:41;29.40;;;12.23;;
73100;SDS011;61288;53.446;-2.266;2023-05-07T02:15:10;25.52;;;11.00;;
73100;SDS011;61288;53.446;-2.266;2023-05-07T02:17:38;25.75;;;12.35;;
73100;SDS011;61288;53.446;-2.266;2023-05-07T02:20:05;24.58;;;10.68;;
73100;SDS011;61288;53.446;-2.266;2023-05-07T02:22:32;29.23;;;12.88;;
73100;SDS011;61288;53.446;-2.266;2023-05-07T02:24:57;27.17;;;11.75;;
73100;SDS011;61288;53.446;-2.266;2023-05-07T02:27:23;26.75;;;12.18;;
73100;SDS011;61288;53.446;-2.266;2023-05-07T02:29:48;23.92;;;11.05;;
73100;SDS011;61288;53.446;-2.266;2023-05-07T02:32:13;27.83;;;11.75;;
73100;SDS011;61288;53.446;-2.266;2023-05-07T02:34:39;29.17;;;12.75;;
73100;SDS011;61288;53.446;-2.266;2023-05-07T02:37:07;23.25;;;10.30;;
73100;SDS011;61288;53.446;-2.266;2023-05-07T02:39:32;26.00;;;10.85;;
73100;SDS011;61288;53.446;-2.266;2023-05-07T02:41:57;24.65;;;11.23;;
73100;SDS011;61288;53.446;-2.266;2023-05-07T02:44:23;25.58;;;10.05;;
73100;SDS011;61288;53.446;-2.266;2023-05-07T02:46:48;25.40;;;11.45;;
73100;SDS011;61288;53.446;-2.266;2023-05-07T02:49:14;28.08;;;11.77;;
73100;SDS011;61288;53.446;-2.266;2023-05-07T02:51:40;23.08;;;10.18;;
73100;SDS011;61288;53.446;-2.266;2023-05-07T02:54:05;26.05;;;10.80;;
73100;SDS011;61288;53.446;-2.266;2023-05-07T02:56:31;24.35;;;10.57;;
73100;SDS011;61288;53.446;-2.266;2023-05-07T02:59:00;24.98;;;10.55;;
73100;SDS011;61288;53.446;-2.266;2023-05-07T03:01:26;25.58;;;10.18;;
73100;SDS011;61288;53.446;-2.266;2023-05-07T03:03:51;25.45;;;9.82;;
73100;SDS011;61288;53.446;-2.266;2023-05-07T03:06:17;21.85;;;9.77;;
73100;SDS011;61288;53.446;-2.266;2023-05-07T03:08:42;29.45;;;11.48;;
73100;SDS011;61288;53.446;-2.266;2023-05-07T03:11:08;22.67;;;10.20;;
73100;SDS011;61288;53.446;-2.266;2023-05-07T03:13:33;22.20;;;10.07;;
73100;SDS011;61288;53.446;-2.266;2023-05-07T03:15:59;25.60;;;10.25;;
73100;SDS011;61288;53.446;-2.266;2023-05-07T03:18:24;28.55;;;11.02;;
73100;SDS011;61288;53.446;-2.266;2023-05-07T03:20:50;25.92;;;10.02;;
73100;SDS011;61288;53.446;-2.266;2023-05-07T03:23:16;23.30;;;9.52;;
73100;SDS011;61288;53.446;-2.266;2023-05-07T03:25:42;21.13;;;9.43;;
73100;SDS011;61288;53.446;-2.266;2023-05-07T03:28:07;20.55;;;9.25;;
73100;SDS011;61288;53.446;-2.266;2023-05-07T03:30:33;23.83;;;9.48;;
73100;SDS011;61288;53.446;-2.266;2023-05-07T03:32:58;21.02;;;9.18;;
73100;SDS011;61288;53.446;-2.266;2023-05-07T03:35:24;20.95;;;9.35;;
73100;SDS011;61288;53.446;-2.266;2023-05-07T03:37:49;20.95;;;8.68;;
73100;SDS011;61288;53.446;-2.266;2023-05-07T03:40:15;21.77;;;9.77;;
73100;SDS011;61288;53.446;-2.266;2023-05-07T03:42:44;21.65;;;8.55;;
73100;SDS011;61288;53.446;-2.266;2023-05-07T03:45:09;20.38;;;9.27;;
73100;SDS011;61288;53.446;-2.266;2023-05-07T03:47:35;19.48;;;8.38;;
73100;SDS011;61288;53.446;-2.266;2023-05-07T03:50:00;19.88;;;7.88;;
73100;SDS011;61288;53.446;-2.266;2023-05-07T03:52:26;21.55;;;9.30;;
73100;SDS011;61288;53.446;-2.266;2023-05-07T03:54:52;21.13;;;8.65;;
73100;SDS011;61288;53.446;-2.266;2023-05-07T03:57:18;21.17;;;8.80;;
73100;SDS011;61288;53.446;-2.266;2023-05-07T03:59:43;19.02;;;8.13;;
73100;SDS011;61288;53.446;-2.266;2023-05-07T04:02:09;19.90;;;7.97;;
73100;SDS011;61288;53.446;-2.266;2023-05-07T04:04:35;20.60;;;8.18;;
73100;SDS011;61288;53.446;-2.266;2023-05-07T04:07:03;21.23;;;8.48;;
73100;SDS011;61288;53.446;-2.266;2023-05-07T04:09:29;22.63;;;8.98;;
73100;SDS011;61288;53.446;-2.266;2023-05-07T04:11:55;23.52;;;10.02;;
73100;SDS011;61288;53.446;-2.266;2023-05-07T04:14:20;26.88;;;10.00;;
73100;SDS011;61288;53.446;-2.266;2023-05-07T04:16:46;20.33;;;9.15;;
73100;SDS011;61288;53.446;-2.266;2023-05-07T04:19:11;20.63;;;9.43;;
73100;SDS011;61288;53.446;-2.266;2023-05-07T04:21:37;23.95;;;10.27;;
73100;SDS011;61288;53.446;-2.266;2023-05-07T04:24:03;19.33;;;8.70;;
73100;SDS011;61288;53.446;-2.266;2023-05-07T04:26:28;22.45;;;8.98;;
73100;SDS011;61288;53.446;-2.266;2023-05-07T04:28:54;27.65;;;10.25;;
73100;SDS011;61288;53.446;-2.266;2023-05-07T04:33:55;22.88;;;9.55;;
73100;SDS011;61288;53.446;-2.266;2023-05-07T04:36:23;23.02;;;9.75;;
73100;SDS011;61288;53.446;-2.266;2023-05-07T04:38:52;24.67;;;10.35;;
73100;SDS011;61288;53.446;-2.266;2023-05-07T04:41:18;24.90;;;10.07;;
73100;SDS011;61288;53.446;-2.266;2023-05-07T04:43:44;22.65;;;9.93;;
73100;SDS011;61288;53.446;-2.266;2023-05-07T04:46:10;22.70;;;10.05;;
73100;SDS011;61288;53.446;-2.266;2023-05-07T04:48:36;22.25;;;9.48;;
73100;SDS011;61288;53.446;-2.266;2023-05-07T04:51:01;25.70;;;10.15;;
73100;SDS011;61288;53.446;-2.266;2023-05-07T04:53:27;27.00;;;10.05;;
73100;SDS011;61288;53.446;-2.266;2023-05-07T04:55:56;25.65;;;9.93;;
73100;SDS011;61288;53.446;-2.266;2023-05-07T04:58:24;26.27;;;10.55;;
73100;SDS011;61288;53.446;-2.266;2023-05-07T05:00:50;21.10;;;9.02;;
73100;SDS011;61288;53.446;-2.266;2023-05-07T05:03:15;27.35;;;10.43;;
73100;SDS011;61288;53.446;-2.266;2023-05-07T05:05:41;27.10;;;10.93;;
73100;SDS011;61288;53.446;-2.266;2023-05-07T05:08:06;27.08;;;10.43;;
73100;SDS011;61288;53.446;-2.266;2023-05-07T05:10:31;27.65;;;10.68;;
73100;SDS011;61288;53.446;-2.266;2023-05-07T05:12:57;30.48;;;11.55;;
73100;SDS011;61288;53.446;-2.266;2023-05-07T05:15:22;30.50;;;11.77;;
73100;SDS011;61288;53.446;-2.266;2023-05-07T05:17:48;30.05;;;11.10;;
73100;SDS011;61288;53.446;-2.266;2023-05-07T05:20:14;28.38;;;10.75;;
73100;SDS011;61288;53.446;-2.266;2023-05-07T05:22:40;34.67;;;11.60;;
73100;SDS011;61288;53.446;-2.266;2023-05-07T05:25:07;30.67;;;11.00;;
73100;SDS011;61288;53.446;-2.266;2023-05-07T05:27:32;31.70;;;11.52;;
73100;SDS011;61288;53.446;-2.266;2023-05-07T05:29:58;32.83;;;10.45;;
73100;SDS011;61288;53.446;-2.266;2023-05-07T05:32:23;28.52;;;10.90;;
73100;SDS011;61288;53.446;-2.266;2023-05-07T05:34:49;31.88;;;10.85;;
73100;SDS011;61288;53.446;-2.266;2023-05-07T05:37:14;33.95;;;10.98;;
73100;SDS011;61288;53.446;-2.266;2023-05-07T05:39:40;34.20;;;10.55;;
73100;SDS011;61288;53.446;-2.266;2023-05-07T05:42:06;26.38;;;9.75;;
73100;SDS011;61288;53.446;-2.266;2023-05-07T05:44:32;27.33;;;10.45;;
73100;SDS011;61288;53.446;-2.266;2023-05-07T05:46:57;27.00;;;10.55;;
73100;SDS011;61288;53.446;-2.266;2023-05-07T05:49:24;30.83;;;9.98;;
73100;SDS011;61288;53.446;-2.266;2023-05-07T05:51:50;26.33;;;10.40;;
73100;SDS011;61288;53.446;-2.266;2023-05-07T05:54:15;30.15;;;10.40;;
73100;SDS011;61288;53.446;-2.266;2023-05-07T05:56:41;32.17;;;10.95;;
73100;SDS011;61288;53.446;-2.266;2023-05-07T05:59:07;32.22;;;11.73;;
73100;SDS011;61288;53.446;-2.266;2023-05-07T06:01:32;28.27;;;10.68;;
73100;SDS011;61288;53.446;-2.266;2023-05-07T06:03:58;32.60;;;10.93;;
73100;SDS011;61288;53.446;-2.266;2023-05-07T06:06:23;28.75;;;10.88;;
73100;SDS011;61288;53.446;-2.266;2023-05-07T06:08:49;31.00;;;10.07;;
73100;SDS011;61288;53.446;-2.266;2023-05-07T06:11:14;26.65;;;9.38;;
73100;SDS011;61288;53.446;-2.266;2023-05-07T06:13:40;25.88;;;9.57;;
73100;SDS011;61288;53.446;-2.266;2023-05-07T06:16:06;28.17;;;10.57;;
73100;SDS011;61288;53.446;-2.266;2023-05-07T06:18:31;21.52;;;8.55;;
73100;SDS011;61288;53.446;-2.266;2023-05-07T06:20:57;29.25;;;9.63;;
73100;SDS011;61288;53.446;-2.266;2023-05-07T06:23:22;25.90;;;9.73;;
73100;SDS011;61288;53.446;-2.266;2023-05-07T06:25:48;25.27;;;8.82;;
73100;SDS011;61288;53.446;-2.266;2023-05-07T06:28:15;26.80;;;9.38;;
73100;SDS011;61288;53.446;-2.266;2023-05-07T06:30:41;25.45;;;9.00;;
73100;SDS011;61288;53.446;-2.266;2023-05-07T06:33:06;28.02;;;8.43;;
73100;SDS011;61288;53.446;-2.266;2023-05-07T06:35:32;24.50;;;8.23;;
73100;SDS011;61288;53.446;-2.266;2023-05-07T06:37:57;26.20;;;7.80;;
73100;SDS011;61288;53.446;-2.266;2023-05-07T06:40:23;19.33;;;6.80;;
73100;SDS011;61288;53.446;-2.266;2023-05-07T06:42:49;19.75;;;6.88;;
73100;SDS011;61288;53.446;-2.266;2023-05-07T06:45:14;18.92;;;6.22;;
73100;SDS011;61288;53.446;-2.266;2023-05-07T06:47:40;20.52;;;6.03;;
73100;SDS011;61288;53.446;-2.266;2023-05-07T06:50:06;21.52;;;6.47;;
73100;SDS011;61288;53.446;-2.266;2023-05-07T06:52:32;20.10;;;5.50;;
73100;SDS011;61288;53.446;-2.266;2023-05-07T06:54:57;13.75;;;5.28;;
73100;SDS011;61288;53.446;-2.266;2023-05-07T06:57:23;17.98;;;4.75;;
73100;SDS011;61288;53.446;-2.266;2023-05-07T06:59:49;17.17;;;4.53;;
73100;SDS011;61288;53.446;-2.266;2023-05-07T07:02:14;16.83;;;5.00;;
73100;SDS011;61288;53.446;-2.266;2023-05-07T07:04:40;15.93;;;4.28;;
73100;SDS011;61288;53.446;-2.266;2023-05-07T07:07:06;15.40;;;4.03;;
73100;SDS011;61288;53.446;-2.266;2023-05-07T07:09:32;18.83;;;3.75;;
73100;SDS011;61288;53.446;-2.266;2023-05-07T07:11:58;11.73;;;3.33;;
73100;SDS011;61288;53.446;-2.266;2023-05-07T07:14:23;12.40;;;3.25;;
73100;SDS011;61288;53.446;-2.266;2023-05-07T07:16:49;13.65;;;3.60;;
73100;SDS011;61288;53.446;-2.266;2023-05-07T07:19:14;12.30;;;3.30;;
73100;SDS011;61288;53.446;-2.266;2023-05-07T07:21:40;10.18;;;3.05;;
73100;SDS011;61288;53.446;-2.266;2023-05-07T07:24:06;13.23;;;3.10;;
73100;SDS011;61288;53.446;-2.266;2023-05-07T07:26:32;12.55;;;2.90;;
73100;SDS011;61288;53.446;-2.266;2023-05-07T07:28:58;13.38;;;3.47;;
73100;SDS011;61288;53.446;-2.266;2023-05-07T07:31:23;14.55;;;3.42;;
73100;SDS011;61288;53.446;-2.266;2023-05-07T07:33:49;11.82;;;3.05;;
73100;SDS011;61288;53.446;-2.266;2023-05-07T07:36:15;12.75;;;3.28;;
73100;SDS011;61288;53.446;-2.266;2023-05-07T07:38:40;14.07;;;2.83;;
73100;SDS011;61288;53.446;-2.266;2023-05-07T07:41:07;12.15;;;2.83;;
73100;SDS011;61288;53.446;-2.266;2023-05-07T07:43:33;10.95;;;3.05;;
73100;SDS011;61288;53.446;-2.266;2023-05-07T07:46:01;9.77;;;2.78;;
73100;SDS011;61288;53.446;-2.266;2023-05-07T07:48:26;12.65;;;3.28;;
73100;SDS011;61288;53.446;-2.266;2023-05-07T07:50:52;14.60;;;2.70;;
73100;SDS011;61288;53.446;-2.266;2023-05-07T07:53:17;10.48;;;2.88;;
73100;SDS011;61288;53.446;-2.266;2023-05-07T07:55:43;12.50;;;2.60;;
73100;SDS011;61288;53.446;-2.266;2023-05-07T07:58:09;12.02;;;2.85;;
73100;SDS011;61288;53.446;-2.266;2023-05-07T08:00:34;10.75;;;2.78;;
73100;SDS011;61288;53.446;-2.266;2023-05-07T08:03:00;12.55;;;2.55;;
73100;SDS011;61288;53.446;-2.266;2023-05-07T08:05:28;12.98;;;2.63;;
73100;SDS011;61288;53.446;-2.266;2023-05-07T08:07:54;12.45;;;2.88;;
73100;SDS011;61288;53.446;-2.266;2023-05-07T08:10:21;12.38;;;2.83;;
73100;SDS011;61288;53.446;-2.266;2023-05-07T08:12:48;12.20;;;2.80;;
73100;SDS011;61288;53.446;-2.266;2023-05-07T08:15:14;14.45;;;2.95;;
73100;SDS011;61288;53.446;-2.266;2023-05-07T08:17:40;12.52;;;2.65;;
73100;SDS011;61288;53.446;-2.266;2023-05-07T08:20:06;10.20;;;3.20;;
73100;SDS011;61288;53.446;-2.266;2023-05-07T08:22:32;13.70;;;3.47;;
73100;SDS011;61288;53.446;-2.266;2023-05-07T08:25:00;8.68;;;2.70;;
73100;SDS011;61288;53.446;-2.266;2023-05-07T08:27:25;13.38;;;2.92;;
73100;SDS011;61288;53.446;-2.266;2023-05-07T08:29:51;11.07;;;2.63;;
73100;SDS011;61288;53.446;-2.266;2023-05-07T08:32:16;10.88;;;2.80;;
73100;SDS011;61288;53.446;-2.266;2023-05-07T08:34:42;14.82;;;3.22;;
73100;SDS011;61288;53.446;-2.266;2023-05-07T08:37:07;13.18;;;2.85;;
73100;SDS011;61288;53.446;-2.266;2023-05-07T08:39:33;14.05;;;2.83;;
73100;SDS011;61288;53.446;-2.266;2023-05-07T08:41:59;11.70;;;2.58;;
73100;SDS011;61288;53.446;-2.266;2023-05-07T08:44:27;10.77;;;2.60;;
73100;SDS011;61288;53.446;-2.266;2023-05-07T08:46:58;12.40;;;3.13;;
73100;SDS011;61288;53.446;-2.266;2023-05-07T08:49:25;10.63;;;2.50;;
73100;SDS011;61288;53.446;-2.266;2023-05-07T08:51:52;13.15;;;2.40;;
73100;SDS011;61288;53.446;-2.266;2023-05-07T08:54:20;10.75;;;2.55;;
73100;SDS011;61288;53.446;-2.266;2023-05-07T08:56:46;10.50;;;2.92;;
73100;SDS011;61288;53.446;-2.266;2023-05-07T08:59:11;11.52;;;3.20;;
73100;SDS011;61288;53.446;-2.266;2023-05-07T09:01:37;10.73;;;3.00;;
73100;SDS011;61288;53.446;-2.266;2023-05-07T09:04:03;16.77;;;2.95;;
73100;SDS011;61288;53.446;-2.266;2023-05-07T09:06:31;9.82;;;2.67;;
73100;SDS011;61288;53.446;-2.266;2023-05-07T09:08:56;10.50;;;2.60;;
73100;SDS011;61288;53.446;-2.266;2023-05-07T09:11:23;9.93;;;2.40;;
73100;SDS011;61288;53.446;-2.266;2023-05-07T09:13:56;12.60;;;2.90;;
73100;SDS011;61288;53.446;-2.266;2023-05-07T09:16:25;13.52;;;3.30;;
73100;SDS011;61288;53.446;-2.266;2023-05-07T09:18:51;9.68;;;2.72;;
73100;SDS011;61288;53.446;-2.266;2023-05-07T09:21:19;15.57;;;3.28;;
73100;SDS011;61288;53.446;-2.266;2023-05-07T09:23:47;9.20;;;2.55;;
73100;SDS011;61288;53.446;-2.266;2023-05-07T09:26:17;14.07;;;2.78;;
73100;SDS011;61288;53.446;-2.266;2023-05-07T09:28:46;11.32;;;3.08;;
73100;SDS011;61288;53.446;-2.266;2023-05-07T09:31:11;12.68;;;3.17;;
73100;SDS011;61288;53.446;-2.266;2023-05-07T09:33:39;11.88;;;2.85;;
73100;SDS011;61288;53.446;-2.266;2023-05-07T09:36:07;8.43;;;2.70;;
73100;SDS011;61288;53.446;-2.266;2023-05-07T09:38:34;13.00;;;2.90;;
73100;SDS011;61288;53.446;-2.266;2023-05-07T09:41:13;10.77;;;3.05;;
73100;SDS011;61288;53.446;-2.266;2023-05-07T09:43:39;12.23;;;3.00;;
73100;SDS011;61288;53.446;-2.266;2023-05-07T09:46:06;12.05;;;2.92;;
73100;SDS011;61288;53.446;-2.266;2023-05-07T09:48:37;11.80;;;2.55;;
73100;SDS011;61288;53.446;-2.266;2023-05-07T09:51:06;9.75;;;2.70;;
73100;SDS011;61288;53.446;-2.266;2023-05-07T09:53:40;14.75;;;2.88;;
73100;SDS011;61288;53.446;-2.266;2023-05-07T09:56:07;9.40;;;2.47;;
73100;SDS011;61288;53.446;-2.266;2023-05-07T09:58:33;13.55;;;3.03;;
73100;SDS011;61288;53.446;-2.266;2023-05-07T10:01:02;12.80;;;2.55;;
73100;SDS011;61288;53.446;-2.266;2023-05-07T10:03:29;9.63;;;2.42;;
73100;SDS011;61288;53.446;-2.266;2023-05-07T10:05:58;11.65;;;2.75;;
73100;SDS011;61288;53.446;-2.266;2023-05-07T10:08:24;11.77;;;2.80;;
73100;SDS011;61288;53.446;-2.266;2023-05-07T10:10:50;10.02;;;2.75;;
73100;SDS011;61288;53.446;-2.266;2023-05-07T10:13:16;12.35;;;2.78;;
73100;SDS011;61288;53.446;-2.266;2023-05-07T10:15:44;8.82;;;2.80;;
73100;SDS011;61288;53.446;-2.266;2023-05-07T10:18:09;14.15;;;2.92;;
73100;SDS011;61288;53.446;-2.266;2023-05-07T10:20:38;9.73;;;2.42;;
73100;SDS011;61288;53.446;-2.266;2023-05-07T10:23:06;11.68;;;2.95;;
73100;SDS011;61288;53.446;-2.266;2023-05-07T10:25:33;14.57;;;3.00;;
73100;SDS011;61288;53.446;-2.266;2023-05-07T10:28:00;7.50;;;2.42;;
73100;SDS011;61288;53.446;-2.266;2023-05-07T10:33:31;11.55;;;2.97;;
73100;SDS011;61288;53.446;-2.266;2023-05-07T10:35:59;12.95;;;2.85;;
73100;SDS011;61288;53.446;-2.266;2023-05-07T10:38:28;15.35;;;3.17;;
73100;SDS011;61288;53.446;-2.266;2023-05-07T10:40:54;11.18;;;3.22;;
73100;SDS011;61288;53.446;-2.266;2023-05-07T10:43:20;7.85;;;2.45;;
73100;SDS011;61288;53.446;-2.266;2023-05-07T10:46:22;13.38;;;2.80;;
73100;SDS011;61288;53.446;-2.266;2023-05-07T10:51:36;9.10;;;2.88;;
73100;SDS011;61288;53.446;-2.266;2023-05-07T10:56:38;12.63;;;2.92;;
73100;SDS011;61288;53.446;-2.266;2023-05-07T11:01:53;8.75;;;2.58;;
73100;SDS011;61288;53.446;-2.266;2023-05-07T11:04:20;8.43;;;2.58;;
73100;SDS011;61288;53.446;-2.266;2023-05-07T11:13:02;9.18;;;2.72;;
73100;SDS011;61288;53.446;-2.266;2023-05-07T11:15:09;9.65;;;2.83;;
73100;SDS011;61288;53.446;-2.266;2023-05-07T11:17:52;13.00;;;2.55;;
73100;SDS011;61288;53.446;-2.266;2023-05-07T11:20:18;11.70;;;2.42;;
73100;SDS011;61288;53.446;-2.266;2023-05-07T11:22:44;8.45;;;2.65;;
73100;SDS011;61288;53.446;-2.266;2023-05-07T11:25:09;9.13;;;2.30;;
73100;SDS011;61288;53.446;-2.266;2023-05-07T11:27:36;9.68;;;2.38;;
73100;SDS011;61288;53.446;-2.266;2023-05-07T11:30:01;7.93;;;1.88;;
73100;SDS011;61288;53.446;-2.266;2023-05-07T11:32:28;9.10;;;2.20;;
73100;SDS011;61288;53.446;-2.266;2023-05-07T11:34:55;7.22;;;2.28;;
73100;SDS011;61288;53.446;-2.266;2023-05-07T11:37:23;8.32;;;2.20;;
73100;SDS011;61288;53.446;-2.266;2023-05-07T11:39:51;9.68;;;2.20;;
73100;SDS011;61288;53.446;-2.266;2023-05-07T11:42:40;10.55;;;2.80;;
73100;SDS011;61288;53.446;-2.266;2023-05-07T11:45:10;7.18;;;2.22;;
73100;SDS011;61288;53.446;-2.266;2023-05-07T11:47:36;9.18;;;2.63;;
73100;SDS011;61288;53.446;-2.266;2023-05-07T11:50:05;8.30;;;2.15;;
73100;SDS011;61288;53.446;-2.266;2023-05-07T11:52:34;7.25;;;2.30;;
73100;SDS011;61288;53.446;-2.266;2023-05-07T11:55:01;9.40;;;2.55;;
73100;SDS011;61288;53.446;-2.266;2023-05-07T11:57:29;6.90;;;2.35;;
73100;SDS011;61288;53.446;-2.266;2023-05-07T11:59:58;9.05;;;2.53;;
73100;SDS011;61288;53.446;-2.266;2023-05-07T12:02:27;10.57;;;3.20;;
73100;SDS011;61288;53.446;-2.266;2023-05-07T12:04:53;9.82;;;3.00;;
73100;SDS011;61288;53.446;-2.266;2023-05-07T12:07:19;11.43;;;3.17;;
73100;SDS011;61288;53.446;-2.266;2023-05-07T12:09:46;10.00;;;3.08;;
73100;SDS011;61288;53.446;-2.266;2023-05-07T12:12:12;9.95;;;3.13;;
73100;SDS011;61288;53.446;-2.266;2023-05-07T12:14:41;8.65;;;2.65;;
73100;SDS011;61288;53.446;-2.266;2023-05-07T12:17:08;10.80;;;2.92;;
73100;SDS011;61288;53.446;-2.266;2023-05-07T12:19:35;8.75;;;3.20;;
73100;SDS011;61288;53.446;-2.266;2023-05-07T12:22:02;10.00;;;3.60;;
73100;SDS011;61288;53.446;-2.266;2023-05-07T12:24:28;10.50;;;2.78;;
73100;SDS011;61288;53.446;-2.266;2023-05-07T12:26:54;10.57;;;2.88;;
73100;SDS011;61288;53.446;-2.266;2023-05-07T12:29:22;11.98;;;3.15;;
73100;SDS011;61288;53.446;-2.266;2023-05-07T12:31:49;8.85;;;2.95;;
73100;SDS011;61288;53.446;-2.266;2023-05-07T12:34:16;9.30;;;2.90;;
73100;SDS011;61288;53.446;-2.266;2023-05-07T12:36:43;8.00;;;2.75;;
73100;SDS011;61288;53.446;-2.266;2023-05-07T12:39:09;10.82;;;3.08;;
73100;SDS011;61288;53.446;-2.266;2023-05-07T12:41:56;9.35;;;2.83;;
73100;SDS011;61288;53.446;-2.266;2023-05-07T12:44:23;7.65;;;3.08;;
73100;SDS011;61288;53.446;-2.266;2023-05-07T12:46:49;8.85;;;2.75;;
73100;SDS011;61288;53.446;-2.266;2023-05-07T12:49:16;8.77;;;2.72;;
73100;SDS011;61288;53.446;-2.266;2023-05-07T12:51:43;11.82;;;3.15;;
73100;SDS011;61288;53.446;-2.266;2023-05-07T12:54:10;13.20;;;3.25;;
73100;SDS011;61288;53.446;-2.266;2023-05-07T12:56:36;11.32;;;3.17;;
73100;SDS011;61288;53.446;-2.266;2023-05-07T12:59:02;10.68;;;3.83;;
73100;SDS011;61288;53.446;-2.266;2023-05-07T13:01:28;11.38;;;3.30;;
73100;SDS011;61288;53.446;-2.266;2023-05-07T13:03:56;9.65;;;3.35;;
73100;SDS011;61288;53.446;-2.266;2023-05-07T13:06:26;9.00;;;3.70;;
73100;SDS011;61288;53.446;-2.266;2023-05-07T13:08:51;11.25;;;3.72;;
73100;SDS011;61288;53.446;-2.266;2023-05-07T13:11:17;10.93;;;3.47;;
73100;SDS011;61288;53.446;-2.266;2023-05-07T13:13:42;9.65;;;4.18;;
73100;SDS011;61288;53.446;-2.266;2023-05-07T13:16:09;12.02;;;4.85;;
73100;SDS011;61288;53.446;-2.266;2023-05-07T13:18:37;11.43;;;4.45;;
73100;SDS011;61288;53.446;-2.266;2023-05-07T13:21:05;10.73;;;4.32;;
73100;SDS011;61288;53.446;-2.266;2023-05-07T13:23:31;11.63;;;4.50;;
73100;SDS011;61288;53.446;-2.266;2023-05-07T13:25:57;9.30;;;4.50;;
73100;SDS011;61288;53.446;-2.266;2023-05-07T13:28:22;10.30;;;4.82;;
73100;SDS011;61288;53.446;-2.266;2023-05-07T13:30:49;9.45;;;4.70;;
73100;SDS011;61288;53.446;-2.266;2023-05-07T13:33:17;10.18;;;4.82;;
73100;SDS011;61288;53.446;-2.266;2023-05-07T13:35:43;9.00;;;4.53;;
73100;SDS011;61288;53.446;-2.266;2023-05-07T13:38:09;11.43;;;4.95;;
73100;SDS011;61288;53.446;-2.266;2023-05-07T13:40:35;10.60;;;4.93;;
73100;SDS011;61288;53.446;-2.266;2023-05-07T13:43:01;9.35;;;4.35;;
73100;SDS011;61288;53.446;-2.266;2023-05-07T13:45:27;9.52;;;4.32;;
73100;SDS011;61288;53.446;-2.266;2023-05-07T13:47:54;9.90;;;4.32;;
73100;SDS011;61288;53.446;-2.266;2023-05-07T13:50:21;10.63;;;4.10;;
73100;SDS011;61288;53.446;-2.266;2023-05-07T13:52:46;10.30;;;3.58;;
73100;SDS011;61288;53.446;-2.266;2023-05-07T13:55:18;8.05;;;3.83;;
73100;SDS011;61288;53.446;-2.266;2023-05-07T13:57:46;8.82;;;3.70;;
73100;SDS011;61288;53.446;-2.266;2023-05-07T14:00:13;8.60;;;3.40;;
73100;SDS011;61288;53.446;-2.266;2023-05-07T14:02:39;9.43;;;3.90;;
73100;SDS011;61288;53.446;-2.266;2023-05-07T14:05:06;10.65;;;4.32;;
73100;SDS011;61288;53.446;-2.266;2023-05-07T14:07:34;9.60;;;3.83;;
73100;SDS011;61288;53.446;-2.266;2023-05-07T14:10:00;11.27;;;3.72;;
73100;SDS011;61288;53.446;-2.266;2023-05-07T14:12:26;7.93;;;3.40;;
73100;SDS011;61288;53.446;-2.266;2023-05-07T14:14:51;11.07;;;3.55;;
73100;SDS011;61288;53.446;-2.266;2023-05-07T14:17:17;9.10;;;3.25;;
73100;SDS011;61288;53.446;-2.266;2023-05-07T14:19:43;8.20;;;3.33;;
73100;SDS011;61288;53.446;-2.266;2023-05-07T14:22:09;6.70;;;3.03;;
73100;SDS011;61288;53.446;-2.266;2023-05-07T14:24:34;9.30;;;3.00;;
73100;SDS011;61288;53.446;-2.266;2023-05-07T14:27:00;9.50;;;2.97;;
73100;SDS011;61288;53.446;-2.266;2023-05-07T14:29:25;10.55;;;2.92;;
73100;SDS011;61288;53.446;-2.266;2023-05-07T14:31:51;9.63;;;2.88;;
73100;SDS011;61288;53.446;-2.266;2023-05-07T14:34:17;8.20;;;2.85;;
73100;SDS011;61288;53.446;-2.266;2023-05-07T14:36:43;7.53;;;2.40;;